createdAt,value
2023-02-07T00:02:31.331Z,34.8
2023-02-07T00:05:31.330Z,33
2023-02-07T00:08:31.334Z,33.4
2023-02-07T00:11:31.357Z,31.4
2023-02-07T00:14:31.352Z,32.5
2023-02-07T00:17:31.352Z,31.4
2023-02-07T00:20:31.348Z,33.3
2023-02-07T00:23:31.370Z,33.5
2023-02-07T00:26:31.353Z,33.6
2023-02-07T00:29:31.388Z,31.2
2023-02-07T00:32:31.370Z,32
2023-02-07T00:35:31.375Z,31.7
2023-02-07T00:38:31.391Z,31.5
2023-02-07T00:41:31.399Z,33
2023-02-07T00:44:31.385Z,34.8
2023-02-07T00:47:31.419Z,33.4
2023-02-07T00:50:31.397Z,36.1
2023-02-07T00:53:31.405Z,37.2
2023-02-07T00:56:31.402Z,37.6
2023-02-07T00:59:31.405Z,39.7
2023-02-07T01:02:31.417Z,39.1
2023-02-07T01:05:31.441Z,38.8
2023-02-07T01:08:31.451Z,41.3
2023-02-07T01:11:31.424Z,44.9
2023-02-07T01:14:31.429Z,43.8
2023-02-07T01:17:31.434Z,46
2023-02-07T01:20:31.435Z,49.5
2023-02-07T01:23:31.479Z,49.2
2023-02-07T01:26:31.447Z,47.4
2023-02-07T01:29:31.438Z,50.2
2023-02-07T01:32:31.449Z,53.6
2023-02-07T01:35:31.450Z,55.6
2023-02-07T01:38:31.460Z,58.9
2023-02-07T01:41:31.505Z,58
2023-02-07T01:44:31.449Z,61.5
2023-02-07T01:47:31.450Z,62.3
2023-02-07T01:50:31.456Z,63.5
2023-02-07T01:53:31.465Z,62.4
2023-02-07T01:56:32.393Z,67.8
2023-02-07T01:59:31.489Z,69.8
2023-02-07T02:02:31.504Z,71.2
2023-02-07T02:05:31.470Z,70.5
2023-02-07T02:08:31.472Z,70.9
2023-02-07T02:11:31.476Z,70.2
2023-02-07T02:14:31.473Z,72.8
2023-02-07T02:17:31.505Z,73.6
2023-02-07T02:20:31.497Z,77
2023-02-07T02:23:31.497Z,75.2
2023-02-07T02:26:31.490Z,81.4
2023-02-07T02:29:31.494Z,79.5
2023-02-07T02:32:31.510Z,81.2
2023-02-07T02:35:31.572Z,77.4
2023-02-07T02:38:31.515Z,77.5
2023-02-07T02:41:31.501Z,75.7
2023-02-07T02:44:31.491Z,77.2
2023-02-07T02:47:31.514Z,74.2
2023-02-07T02:50:31.574Z,70.8
2023-02-07T02:53:31.602Z,71.9
2023-02-07T02:56:31.550Z,71.3
2023-02-07T02:59:31.565Z,74.9
2023-02-07T03:02:31.596Z,69.9
2023-02-07T03:05:31.658Z,69.4
2023-02-07T03:08:31.622Z,71.7
2023-02-07T03:11:31.627Z,67.5
2023-02-07T03:14:31.610Z,65.3
2023-02-07T03:17:31.616Z,63.4
2023-02-07T03:20:31.614Z,64.5
2023-02-07T03:23:31.655Z,64.8
2023-02-07T03:26:31.658Z,60.2
2023-02-07T03:29:31.674Z,57.5
2023-02-07T03:32:31.631Z,55.9
2023-02-07T03:35:31.678Z,56.7
2023-02-07T03:38:31.685Z,58.3
2023-02-07T03:41:31.695Z,57
2023-02-07T03:44:31.744Z,53.3
2023-02-07T03:47:31.750Z,51.9
2023-02-07T03:50:31.753Z,59.5
2023-02-07T03:53:31.769Z,58.7
2023-02-07T03:56:31.758Z,57.4
2023-02-07T03:59:31.734Z,57.5
2023-02-07T04:02:31.732Z,58.4
2023-02-07T04:05:31.755Z,55.2
2023-02-07T04:08:31.741Z,59.6
2023-02-07T04:11:31.728Z,58.5
2023-02-07T04:14:31.741Z,54.2
2023-02-07T04:17:31.728Z,57.6
2023-02-07T04:20:31.738Z,61.6
2023-02-07T04:23:31.773Z,57.4
2023-02-07T04:26:31.756Z,61.7
2023-02-07T04:29:31.741Z,60
2023-02-07T04:32:31.757Z,57.4
2023-02-07T04:35:31.740Z,59.7
2023-02-07T04:38:31.753Z,59.6
2023-02-07T04:41:31.797Z,61.4
2023-02-07T04:44:31.743Z,58.8
2023-02-07T04:47:31.745Z,55.5
2023-02-07T04:50:31.745Z,55
2023-02-07T04:53:31.754Z,52.7
2023-02-07T04:56:31.745Z,49
2023-02-07T04:59:31.771Z,54.1
2023-02-07T05:02:31.749Z,57
2023-02-07T05:05:31.752Z,60.3
2023-02-07T05:08:31.763Z,60.8
2023-02-07T05:11:31.759Z,59.7
2023-02-07T05:14:31.764Z,57.6
2023-02-07T05:17:31.791Z,58.5
2023-02-07T05:20:31.774Z,60.1
2023-02-07T05:23:31.781Z,60.6
2023-02-07T05:26:31.784Z,65.8
2023-02-07T05:29:31.775Z,56.3
2023-02-07T05:32:31.778Z,72.8
2023-02-07T05:35:31.808Z,74.1
2023-02-07T05:38:31.783Z,71.9
2023-02-07T05:41:31.769Z,74.2
2023-02-07T05:44:31.770Z,80.7
2023-02-07T05:47:31.778Z,72.3
2023-02-07T05:50:31.783Z,72.1
2023-02-07T05:53:31.814Z,73.3
2023-02-07T05:56:31.785Z,72.4
2023-02-07T05:59:31.781Z,77.3
2023-02-07T06:02:31.809Z,77.1
2023-02-07T06:05:32.135Z,79.3
2023-02-07T06:08:31.809Z,94.7
2023-02-07T06:11:31.822Z,88.5
2023-02-07T06:14:31.834Z,79.6
2023-02-07T06:17:31.813Z,67.9
2023-02-07T06:20:31.816Z,65.6
2023-02-07T06:23:31.828Z,68.2
2023-02-07T06:26:31.826Z,65.5
2023-02-07T06:29:31.881Z,65.3
2023-02-07T06:32:34.201Z,65.9
2023-02-07T06:35:31.851Z,66.9
2023-02-07T06:38:31.860Z,68.5
2023-02-07T06:41:31.854Z,65.2
2023-02-07T06:44:31.879Z,66.1
2023-02-07T06:47:31.892Z,66.2
2023-02-07T06:50:31.859Z,74.4
2023-02-07T06:53:31.890Z,77.1
2023-02-07T06:56:31.871Z,73.8
2023-02-07T06:59:31.880Z,64.7
2023-02-07T07:02:31.934Z,67
2023-02-07T07:05:31.904Z,65.5
2023-02-07T07:08:31.900Z,69.7
2023-02-07T07:11:31.890Z,67.8
2023-02-07T07:14:32.021Z,73.4
2023-02-07T07:17:31.895Z,71.7
2023-02-07T07:20:31.893Z,69.9
2023-02-07T07:23:31.935Z,67.6
2023-02-07T07:26:46.896Z,69.1
2023-02-07T07:29:31.905Z,72.3
2023-02-07T07:32:34.136Z,76.1
2023-02-07T07:35:31.908Z,74.3
2023-02-07T07:38:31.918Z,79.7
2023-02-07T07:41:31.966Z,77.5
2023-02-07T07:44:31.909Z,80.3
2023-02-07T07:47:31.912Z,82.5
2023-02-07T07:50:31.908Z,80.9
2023-02-07T07:53:31.931Z,79.7
2023-02-07T07:56:31.916Z,80.4
2023-02-07T07:59:31.941Z,78
2023-02-07T08:02:31.924Z,77.4
2023-02-07T08:05:31.927Z,77.8
2023-02-07T08:08:31.935Z,73.8
2023-02-07T08:11:31.924Z,67.1
2023-02-07T08:14:31.934Z,58.5
2023-02-07T08:17:31.984Z,56.5
2023-02-07T08:20:31.943Z,55.4
2023-02-07T08:23:31.953Z,47
2023-02-07T08:26:31.945Z,47.4
2023-02-07T08:29:31.949Z,47.7
2023-02-07T08:32:31.961Z,47.1
2023-02-07T08:35:31.977Z,44.3
2023-02-07T08:38:31.964Z,44.8
2023-02-07T08:41:31.949Z,42.4
2023-02-07T08:44:31.954Z,42.9
2023-02-07T08:47:31.954Z,43
2023-02-07T08:50:31.966Z,42.5
2023-02-07T08:53:31.992Z,39.3
2023-02-07T08:56:31.965Z,39.3
2023-02-07T08:59:31.969Z,40.6
2023-02-07T09:02:32.007Z,38.7
2023-02-07T09:05:31.971Z,37.1
2023-02-07T09:08:31.984Z,32.6
2023-02-07T09:11:32.058Z,33.5
2023-02-07T09:14:31.977Z,32.1
2023-02-07T09:17:31.972Z,31.8
2023-02-07T09:20:31.975Z,31.5
2023-02-07T09:23:31.988Z,31.7
2023-02-07T09:26:31.983Z,30.5
2023-02-07T09:29:32.016Z,34.2
2023-02-07T09:32:31.985Z,29.1
2023-02-07T09:35:31.986Z,27.1
2023-02-07T09:38:32.007Z,28.7
2023-02-07T09:41:31.992Z,27.4
2023-02-07T09:44:32.185Z,27
2023-02-07T09:47:32.024Z,28.2
2023-02-07T09:50:32.020Z,27.1
2023-02-07T09:53:32.019Z,26.8
2023-02-07T09:56:32.002Z,27
2023-02-07T09:59:32.006Z,26.6
2023-02-07T10:02:32.067Z,26.2
2023-02-07T10:05:32.031Z,24.7
2023-02-07T10:08:39.911Z,26.6
2023-02-07T10:11:32.051Z,28.4
2023-02-07T10:14:32.016Z,27.8
2023-02-07T10:17:32.388Z,28.6
2023-02-07T10:20:32.065Z,30.9
2023-02-07T10:23:32.084Z,30.1
2023-02-07T10:26:32.041Z,30.6
2023-02-07T10:29:32.021Z,30.4
2023-02-07T10:32:32.022Z,29.5
2023-02-07T10:35:32.027Z,28.7
2023-02-07T10:38:32.036Z,29
2023-02-07T10:41:32.070Z,26.9
2023-02-07T10:44:32.048Z,26.7
2023-02-07T10:47:32.045Z,28.5
2023-02-07T10:50:32.106Z,27.2
2023-02-07T10:53:32.042Z,26.8
2023-02-07T10:56:32.039Z,27.2
2023-02-07T10:59:32.090Z,26.3
2023-02-07T11:02:32.159Z,27.7
2023-02-07T11:05:32.050Z,27.7
2023-02-07T11:08:32.059Z,26.7
2023-02-07T11:11:32.050Z,25.7
2023-02-07T11:14:32.067Z,25.7
2023-02-07T11:17:32.093Z,25.5
2023-02-07T11:20:32.055Z,25
2023-02-07T11:23:32.060Z,23.5
2023-02-07T11:26:32.060Z,25
2023-02-07T11:29:32.084Z,25.2
2023-02-07T11:32:32.064Z,25.8
2023-02-07T11:35:32.087Z,26
2023-02-07T11:38:32.066Z,25.3
2023-02-07T11:41:32.077Z,26.1
2023-02-07T11:44:32.090Z,25.4
2023-02-07T11:47:32.078Z,24.6
2023-02-07T11:50:32.077Z,26
2023-02-07T11:53:32.103Z,26.6
2023-02-07T11:56:32.095Z,25.8
2023-02-07T11:59:32.096Z,23.8
2023-02-07T12:02:32.092Z,22.9
2023-02-07T12:05:32.098Z,22.3
2023-02-07T12:08:32.098Z,23.3
2023-02-07T12:11:32.125Z,23.3
2023-02-07T12:14:32.116Z,24.3
2023-02-07T12:17:32.104Z,24.2
2023-02-07T12:20:32.108Z,22.5
2023-02-07T12:23:42.191Z,22.4
2023-02-07T12:26:32.116Z,21.4
2023-02-07T12:29:32.148Z,20.6
2023-02-07T12:32:32.212Z,22.6
2023-02-07T12:35:32.118Z,23
2023-02-07T12:38:32.123Z,21.2
2023-02-07T12:41:32.131Z,19.6
2023-02-07T12:44:32.149Z,19.9
2023-02-07T12:47:32.158Z,18.9
2023-02-07T12:50:32.137Z,20.5
2023-02-07T12:53:32.129Z,18.8
2023-02-07T12:56:32.134Z,18.9
2023-02-07T12:59:32.148Z,18.7
2023-02-07T13:02:32.221Z,18.2
2023-02-07T13:05:32.204Z,19.2
2023-02-07T13:08:32.139Z,20.8
2023-02-07T13:11:32.140Z,21.4
2023-02-07T13:14:32.154Z,19.8
2023-02-07T13:17:32.144Z,17.7
2023-02-07T13:20:32.146Z,18.3
2023-02-07T13:23:32.171Z,19.5
2023-02-07T13:26:32.152Z,18.7
2023-02-07T13:29:32.162Z,17.9
2023-02-07T13:32:32.163Z,20.2
2023-02-07T13:35:32.158Z,19.9
2023-02-07T13:38:32.161Z,19.2
2023-02-07T13:41:32.194Z,21.5
2023-02-07T13:44:32.193Z,19.9
2023-02-07T13:47:32.174Z,19.5
2023-02-07T13:50:32.177Z,19.1
2023-02-07T13:53:32.186Z,20.1
2023-02-07T13:56:32.192Z,16.4
2023-02-07T13:59:32.231Z,18.3
2023-02-07T14:02:32.198Z,20
2023-02-07T14:05:32.212Z,19.6
2023-02-07T14:08:32.209Z,16.9
2023-02-07T14:11:32.205Z,18.2
2023-02-07T14:14:32.218Z,17.1
2023-02-07T14:17:32.239Z,16.8
2023-02-07T14:20:32.218Z,15.4
2023-02-07T14:23:32.222Z,19.3
2023-02-07T14:26:32.221Z,18.2
2023-02-07T14:29:32.235Z,18.3
2023-02-07T14:32:32.224Z,18.5
2023-02-07T14:35:32.255Z,18.4
2023-02-07T14:38:32.239Z,19
2023-02-07T14:41:32.252Z,19
2023-02-07T14:44:32.250Z,18.4
2023-02-07T14:47:32.244Z,18.7
2023-02-07T14:50:32.249Z,19.7
2023-02-07T14:53:32.303Z,19
2023-02-07T14:56:32.258Z,19.9
2023-02-07T14:59:32.268Z,19.9
2023-02-07T15:02:32.295Z,22.2
2023-02-07T15:05:32.264Z,21.6
2023-02-07T15:08:32.272Z,19.8
2023-02-07T15:11:32.360Z,18.5
2023-02-07T15:14:32.278Z,17.6
2023-02-07T15:17:43.635Z,14
2023-02-07T15:20:32.274Z,12.4
2023-02-07T15:23:32.281Z,12.8
2023-02-07T15:26:32.279Z,11.6
2023-02-07T15:29:32.305Z,12.4
2023-02-07T15:32:32.372Z,10.4
2023-02-07T15:35:32.281Z,9.5
2023-02-07T15:38:32.279Z,7.3
2023-02-07T15:41:32.280Z,10
2023-02-07T15:44:32.291Z,10
2023-02-07T15:47:32.316Z,11.4
2023-02-07T15:50:32.287Z,13.5
2023-02-07T15:53:32.305Z,14
2023-02-07T15:56:32.293Z,14.4
2023-02-07T15:59:32.306Z,15.3
2023-02-07T16:02:32.321Z,17.1
2023-02-07T16:05:32.330Z,16.7
2023-02-07T16:08:32.338Z,19.3
2023-02-07T16:11:32.313Z,21.5
2023-02-07T16:14:32.334Z,24.2
2023-02-07T16:17:32.325Z,25.7
2023-02-07T16:20:32.331Z,25.9
2023-02-07T16:23:32.359Z,26.9
2023-02-07T16:26:32.337Z,28.3
2023-02-07T16:29:32.353Z,31.2
2023-02-07T16:32:32.341Z,34.7
2023-02-07T16:35:32.343Z,36.1
2023-02-07T16:38:32.352Z,36.9
2023-02-07T16:41:32.526Z,35.4
2023-02-07T16:44:32.368Z,36.7
2023-02-07T16:47:32.363Z,37.3
2023-02-07T16:50:32.372Z,35.1
2023-02-07T16:53:32.371Z,32.9
2023-02-07T16:56:32.375Z,35.2
2023-02-07T16:59:32.414Z,34
2023-02-07T17:02:32.400Z,35.2
2023-02-07T17:05:32.386Z,32.6
2023-02-07T17:08:32.388Z,33.3
2023-02-07T17:11:32.392Z,37.1
2023-02-07T17:14:32.413Z,34.9
2023-02-07T17:17:32.425Z,33.8
2023-02-07T17:20:32.408Z,36.8
2023-02-07T17:23:32.414Z,36
2023-02-07T17:26:32.439Z,33.7
2023-02-07T17:29:32.431Z,33.7
2023-02-07T17:32:32.577Z,34
2023-02-07T17:35:32.453Z,33.8
2023-02-07T17:38:32.428Z,36.8
2023-02-07T17:41:32.433Z,38.7
2023-02-07T17:44:33.911Z,37.7
2023-02-07T17:47:32.446Z,36.8
2023-02-07T17:50:32.452Z,38.3
2023-02-07T17:53:32.483Z,34.7
2023-02-07T17:56:32.452Z,35.5
2023-02-07T17:59:32.473Z,36.6
2023-02-07T18:02:32.533Z,39.1
2023-02-07T18:05:32.472Z,41.5
2023-02-07T18:08:32.466Z,42.1
2023-02-07T18:11:32.501Z,45.7
2023-02-07T18:14:32.484Z,46
2023-02-07T18:17:32.497Z,45.3
2023-02-07T18:20:32.484Z,42.9
2023-02-07T18:23:32.497Z,40.5
2023-02-07T18:26:32.499Z,42.2
2023-02-07T18:29:32.566Z,41.7
2023-02-07T18:32:32.525Z,44.8
2023-02-07T18:35:32.520Z,44.7
2023-02-07T18:38:32.521Z,47.1
2023-02-07T18:41:32.528Z,47.6
2023-02-07T18:44:32.545Z,46
2023-02-07T18:47:32.567Z,49.1
2023-02-07T18:50:32.547Z,49
2023-02-07T18:53:32.551Z,52.2
2023-02-07T18:56:32.554Z,54
2023-02-07T18:59:32.566Z,53.7
2023-02-07T19:02:32.584Z,51.9
2023-02-07T19:05:32.599Z,51.7
2023-02-07T19:08:32.576Z,48.6
2023-02-07T19:11:32.586Z,55.8
2023-02-07T19:14:32.596Z,56.2
2023-02-07T19:17:32.595Z,58.6
2023-02-07T19:20:32.596Z,60.3
2023-02-07T19:23:32.628Z,61.5
2023-02-07T19:26:32.614Z,55.6
2023-02-07T19:29:32.626Z,59
2023-02-07T19:32:32.622Z,60
2023-02-07T19:35:32.624Z,59.9
2023-02-07T19:38:32.634Z,60.6
2023-02-07T19:41:32.664Z,60.9
2023-02-07T19:44:32.656Z,64
2023-02-07T19:47:32.652Z,63
2023-02-07T19:50:32.662Z,64.4
2023-02-07T19:53:32.678Z,62.4
2023-02-07T19:56:32.661Z,63.7
2023-02-07T19:59:32.710Z,64.3
2023-02-07T20:02:32.670Z,67
2023-02-07T20:05:32.676Z,65.1
2023-02-07T20:08:32.689Z,68.4
2023-02-07T20:11:32.689Z,71.6
2023-02-07T20:14:32.715Z,83.1
2023-02-07T20:17:32.730Z,85.2
2023-02-07T20:20:32.713Z,88.6
2023-02-07T20:23:32.714Z,92.6
2023-02-07T20:26:32.722Z,88.2
2023-02-07T20:29:32.739Z,75.8
2023-02-07T20:32:32.737Z,73.9
2023-02-07T20:35:32.766Z,75.9
2023-02-07T20:38:32.746Z,80.9
2023-02-07T20:41:32.755Z,79.4
2023-02-07T20:44:32.785Z,76.4
2023-02-07T20:47:32.769Z,76.7
2023-02-07T20:50:32.776Z,79.5
2023-02-07T20:53:32.820Z,86.7
2023-02-07T20:56:33.731Z,80.6
2023-02-07T20:59:32.861Z,77
2023-02-07T21:02:32.856Z,77.6
2023-02-07T21:05:32.806Z,81.3
2023-02-07T21:08:32.813Z,89.5
2023-02-07T21:11:32.840Z,90.3
2023-02-07T21:14:32.842Z,88.9
2023-02-07T21:17:32.827Z,86.8
2023-02-07T21:20:32.834Z,85.7
2023-02-07T21:23:32.840Z,86.7
2023-02-07T21:26:32.839Z,86.3
2023-02-07T21:29:32.879Z,80.2
2023-02-07T21:32:32.853Z,84.2
2023-02-07T21:35:32.863Z,90
2023-02-07T21:38:32.868Z,87.6
2023-02-07T21:41:32.871Z,96.5
2023-02-07T21:44:32.889Z,106.5
2023-02-07T21:47:32.909Z,110.4
2023-02-07T21:50:32.892Z,106.1
2023-02-07T21:53:32.898Z,104.4
2023-02-07T21:56:32.911Z,98.7
2023-02-07T21:59:32.929Z,101.1
2023-02-07T22:02:32.965Z,104.3
2023-02-07T22:05:32.965Z,106.7
2023-02-07T22:08:32.933Z,107.9
2023-02-07T22:11:32.956Z,113.5
2023-02-07T22:14:32.964Z,113.1
2023-02-07T22:17:32.951Z,122.1
2023-02-07T22:20:32.972Z,129.2
2023-02-07T22:23:32.990Z,130.3
2023-02-07T22:26:33.032Z,127.1
2023-02-07T22:29:32.996Z,134.7
2023-02-07T22:32:32.986Z,127.3
2023-02-07T22:35:32.989Z,132.4
2023-02-07T22:38:33.000Z,123.2
2023-02-07T22:41:33.031Z,116.8
2023-02-07T22:44:33.028Z,112.2
2023-02-07T22:47:33.027Z,111.1
2023-02-07T22:50:33.025Z,112.7
2023-02-07T22:53:33.035Z,109
2023-02-07T22:56:33.038Z,101.4
2023-02-07T22:59:33.084Z,117.2
2023-02-07T23:02:33.094Z,128.4
2023-02-07T23:05:33.065Z,122.9
2023-02-07T23:08:33.065Z,130.4
2023-02-07T23:11:33.072Z,131.7
2023-02-07T23:14:33.095Z,135.5
2023-02-07T23:17:33.114Z,120.2
2023-02-07T23:20:33.086Z,122.7
2023-02-07T23:23:33.093Z,116.2
2023-02-07T23:26:33.102Z,122.6
2023-02-07T23:29:33.108Z,124.7
2023-02-07T23:32:33.119Z,125.8
2023-02-07T23:35:33.151Z,127.7
2023-02-07T23:38:33.132Z,112.6
2023-02-07T23:41:33.140Z,111.2
2023-02-07T23:44:33.169Z,109.4
2023-02-07T23:47:33.167Z,110.3
2023-02-07T23:50:33.168Z,106.2
2023-02-07T23:53:33.221Z,107.4
2023-02-07T23:56:33.187Z,105.5
2023-02-07T23:59:33.204Z,108.2
